createdAt,value
2023-02-13T00:02:12.466Z,6.69
2023-02-13T00:04:59.118Z,6.68
2023-02-13T00:07:45.725Z,6.70
2023-02-13T00:10:33.771Z,6.69
2023-02-13T00:13:20.516Z,6.72
2023-02-13T00:16:07.446Z,6.70
2023-02-13T00:18:54.356Z,6.71
2023-02-13T00:21:40.968Z,6.63
2023-02-13T00:24:27.501Z,6.61
2023-02-13T00:27:15.632Z,6.60
2023-02-13T00:30:02.393Z,6.53
2023-02-13T00:32:49.131Z,6.58
2023-02-13T00:35:35.779Z,6.65
2023-02-13T00:38:22.312Z,6.67
2023-02-13T00:41:09.484Z,6.60
2023-02-13T00:43:57.696Z,6.57
2023-02-13T00:46:44.808Z,6.57
2023-02-13T00:49:31.550Z,6.63
2023-02-13T00:52:19.036Z,6.69
2023-02-13T00:55:06.031Z,6.63
2023-02-13T00:57:52.618Z,6.67
2023-02-13T01:00:40.388Z,6.67
2023-02-13T01:03:27.651Z,6.62
2023-02-13T01:06:14.156Z,6.66
2023-02-13T01:09:00.710Z,6.56
2023-02-13T01:11:47.183Z,6.54
2023-02-13T01:14:34.122Z,6.51
2023-02-13T01:17:21.840Z,6.57
2023-02-13T01:20:09.367Z,6.60
2023-02-13T01:22:56.182Z,6.65
2023-02-13T01:25:43.127Z,6.55
2023-02-13T01:28:29.992Z,6.54
2023-02-13T01:31:17.013Z,6.60
2023-02-13T01:34:04.728Z,6.47
2023-02-13T01:36:51.344Z,6.41
2023-02-13T01:39:37.971Z,6.51
2023-02-13T01:42:27.471Z,6.53
2023-02-13T01:45:24.765Z,6.47
2023-02-13T01:48:17.206Z,6.47
2023-02-13T01:51:09.559Z,6.56
2023-02-13T01:54:01.561Z,6.53
2023-02-13T01:56:52.759Z,6.56
2023-02-13T01:59:44.213Z,6.58
2023-02-13T02:02:35.683Z,6.59
2023-02-13T02:05:25.423Z,6.55
2023-02-13T02:08:14.946Z,6.57
2023-02-13T02:11:10.764Z,6.57
2023-02-13T02:13:58.978Z,6.69
2023-02-13T02:16:54.138Z,6.61
2023-02-13T02:19:50.442Z,6.72
2023-02-13T02:23:00.065Z,6.73
2023-02-13T02:29:02.703Z,6.83
2023-02-13T02:32:30.548Z,6.78
2023-02-13T02:35:25.861Z,6.87
2023-02-13T02:38:30.880Z,6.79
2023-02-13T02:41:41.106Z,6.95
2023-02-13T02:44:44.560Z,6.96
2023-02-13T02:48:00.378Z,6.88
2023-02-13T02:50:52.761Z,6.94
2023-02-13T02:53:45.075Z,6.90
2023-02-13T02:56:38.658Z,6.86
2023-02-13T02:59:46.170Z,6.95
2023-02-13T03:02:53.132Z,6.90
2023-02-13T03:06:01.872Z,7.02
2023-02-13T03:09:12.782Z,6.96
2023-02-13T03:12:17.700Z,7.06
2023-02-13T03:15:04.567Z,6.94
2023-02-13T03:18:09.923Z,6.93
2023-02-13T03:21:24.513Z,6.94
2023-02-13T03:24:18.559Z,6.93
2023-02-13T03:27:12.775Z,6.97
2023-02-13T03:30:07.896Z,7.03
2023-02-13T03:33:06.521Z,7.02
2023-02-13T03:36:21.016Z,6.94
2023-02-13T03:39:13.761Z,6.69
2023-02-13T03:42:04.141Z,6.83
2023-02-13T03:45:10.402Z,6.91
2023-02-13T03:48:00.672Z,6.84
2023-02-13T03:50:46.208Z,6.80
2023-02-13T03:53:35.793Z,6.86
2023-02-13T03:56:42.210Z,6.77
2023-02-13T03:59:33.535Z,6.74
2023-02-13T04:02:26.707Z,6.64
2023-02-13T04:05:19.383Z,6.67
2023-02-13T04:08:06.181Z,6.63
2023-02-13T04:10:59.708Z,6.64
2023-02-13T04:13:53.060Z,6.66
2023-02-13T04:16:42.264Z,6.66
2023-02-13T04:19:29.058Z,6.46
2023-02-13T04:22:16.888Z,6.56
2023-02-13T04:25:03.573Z,6.54
2023-02-13T04:27:50.214Z,6.40
2023-02-13T04:30:36.742Z,6.35
2023-02-13T04:33:23.512Z,6.53
2023-02-13T04:36:10.600Z,6.56
2023-02-13T04:38:58.317Z,6.41
2023-02-13T04:41:44.882Z,6.33
2023-02-13T04:44:31.599Z,6.18
2023-02-13T04:47:17.989Z,6.16
2023-02-13T04:50:04.863Z,6.11
2023-02-13T04:52:54.219Z,6.00
2023-02-13T04:55:41.853Z,6.14
2023-02-13T04:58:28.485Z,6.18
2023-02-13T05:01:15.421Z,6.16
2023-02-13T05:04:01.934Z,6.21
2023-02-13T05:06:48.928Z,6.25
2023-02-13T05:09:35.493Z,6.24
2023-02-13T05:12:23.439Z,6.29
2023-02-13T05:15:10.906Z,6.27
2023-02-13T05:18:00.408Z,6.21
2023-02-13T05:21:07.089Z,6.29
2023-02-13T05:23:52.654Z,6.21
2023-02-13T05:26:38.938Z,6.21
2023-02-13T05:29:26.690Z,6.18
2023-02-13T05:32:13.362Z,6.13
2023-02-13T05:34:59.769Z,6.31
2023-02-13T05:37:46.346Z,6.40
2023-02-13T05:40:32.769Z,6.40
2023-02-13T05:43:20.384Z,6.40
2023-02-13T05:46:10.641Z,6.45
2023-02-13T05:48:57.103Z,6.37
2023-02-13T05:51:43.625Z,6.29
2023-02-13T05:54:30.140Z,6.33
2023-02-13T05:57:16.968Z,6.39
2023-02-13T06:00:04.167Z,6.50
2023-02-13T06:02:53.535Z,6.56
2023-02-13T06:05:40.011Z,6.68
2023-02-13T06:08:27.450Z,6.57
2023-02-13T06:11:14.005Z,6.64
2023-02-13T06:14:00.522Z,6.64
2023-02-13T06:16:47.137Z,6.79
2023-02-13T06:19:35.099Z,6.79
2023-02-13T06:22:21.719Z,6.68
2023-02-13T06:25:08.681Z,6.64
2023-02-13T06:27:55.917Z,6.47
2023-02-13T06:30:42.519Z,6.36
2023-02-13T06:33:29.193Z,6.23
2023-02-13T06:36:16.964Z,6.03
2023-02-13T06:39:04.037Z,5.83
2023-02-13T06:41:50.896Z,5.79
2023-02-13T06:44:37.433Z,5.57
2023-02-13T06:47:24.134Z,5.51
2023-02-13T06:50:13.053Z,5.41
2023-02-13T06:53:01.828Z,5.34
2023-02-13T06:55:48.638Z,5.27
2023-02-13T06:58:35.704Z,5.20
2023-02-13T07:01:22.565Z,5.11
2023-02-13T07:04:09.447Z,5.00
2023-02-13T07:06:56.979Z,4.88
2023-02-13T07:09:44.822Z,5.06
2023-02-13T07:12:34.024Z,5.20
2023-02-13T07:15:20.678Z,5.22
2023-02-13T07:18:07.717Z,5.21
2023-02-13T07:20:54.339Z,5.14
2023-02-13T07:23:40.943Z,5.12
2023-02-13T07:26:29.635Z,5.12
2023-02-13T07:29:16.043Z,5.18
2023-02-13T07:32:02.532Z,5.21
2023-02-13T07:35:00.811Z,5.23
2023-02-13T07:37:48.678Z,5.24
2023-02-13T07:40:35.208Z,5.29
2023-02-13T07:43:23.442Z,5.31
2023-02-13T07:46:10.796Z,5.37
2023-02-13T07:48:57.459Z,5.41
2023-02-13T07:51:43.960Z,5.36
2023-02-13T07:54:30.456Z,5.45
2023-02-13T07:57:17.972Z,5.51
2023-02-13T08:00:07.687Z,5.57
2023-02-13T08:03:00.152Z,5.66
2023-02-13T08:05:49.693Z,5.68
2023-02-13T08:08:38.312Z,5.82
2023-02-13T08:11:47.120Z,5.81
2023-02-13T08:14:33.685Z,5.88
2023-02-13T08:17:21.757Z,5.97
2023-02-13T08:20:10.247Z,6.02
2023-02-13T08:23:03.848Z,6.08
2023-02-13T08:25:50.798Z,6.04
2023-02-13T08:28:38.062Z,5.99
2023-02-13T08:31:25.024Z,6.10
2023-02-13T08:34:12.961Z,6.15
2023-02-13T08:36:59.475Z,6.34
2023-02-13T08:39:46.285Z,6.46
2023-02-13T08:42:33.056Z,6.56
2023-02-13T08:45:20.263Z,6.72
2023-02-13T08:48:07.573Z,6.72
2023-02-13T08:50:56.122Z,6.87
2023-02-13T08:53:43.477Z,7.06
2023-02-13T08:56:30.137Z,7.08
2023-02-13T08:59:16.992Z,7.32
2023-02-13T09:02:04.330Z,7.33
2023-02-13T09:04:50.862Z,7.42
2023-02-13T09:07:38.736Z,7.33
2023-02-13T09:10:25.337Z,7.53
2023-02-13T09:13:11.860Z,7.53
2023-02-13T09:16:01.458Z,7.51
2023-02-13T09:18:48.382Z,7.76
2023-02-13T09:21:34.786Z,7.67
2023-02-13T09:24:22.759Z,7.68
2023-02-13T09:27:09.510Z,7.86
2023-02-13T09:29:56.169Z,7.75
2023-02-13T09:32:42.964Z,8.17
2023-02-13T09:35:30.178Z,8.25
2023-02-13T09:38:16.893Z,8.15
2023-02-13T09:41:08.723Z,8.10
2023-02-13T09:44:00.206Z,8.17
2023-02-13T09:46:47.542Z,8.43
2023-02-13T09:49:38.294Z,8.58
2023-02-13T09:52:33.533Z,8.50
2023-02-13T09:55:22.792Z,8.67
2023-02-13T09:58:19.201Z,8.56
2023-02-13T10:01:12.804Z,8.40
2023-02-13T10:04:16.113Z,8.59
2023-02-13T10:07:19.146Z,8.61
2023-02-13T10:10:19.992Z,8.53
2023-02-13T10:13:32.204Z,8.73
2023-02-13T10:16:22.223Z,8.79
2023-02-13T10:19:20.276Z,8.99
2023-02-13T10:22:12.964Z,9.21
2023-02-13T10:25:05.529Z,9.12
2023-02-13T10:27:56.155Z,9.34
2023-02-13T10:30:48.965Z,9.44
2023-02-13T10:33:41.972Z,9.30
2023-02-13T10:36:32.340Z,9.17
2023-02-13T10:39:26.368Z,9.55
2023-02-13T10:42:23.939Z,9.33
2023-02-13T10:45:33.930Z,9.63
2023-02-13T10:48:48.815Z,9.23
2023-02-13T10:51:44.332Z,9.73
2023-02-13T10:55:07.628Z,9.99
2023-02-13T10:58:07.763Z,9.80
2023-02-13T11:00:57.208Z,9.77
2023-02-13T11:03:47.919Z,9.80
2023-02-13T11:06:37.756Z,10.11
2023-02-13T11:09:25.154Z,9.87
2023-02-13T11:12:26.085Z,9.79
2023-02-13T11:15:25.548Z,10.16
2023-02-13T11:18:20.109Z,10.19
2023-02-13T11:21:12.268Z,10.23
2023-02-13T11:23:59.028Z,10.51
2023-02-13T11:26:45.759Z,10.66
2023-02-13T11:29:35.138Z,10.44
2023-02-13T11:32:25.543Z,10.29
2023-02-13T11:35:28.731Z,10.29
2023-02-13T11:38:24.122Z,10.50
2023-02-13T11:41:13.306Z,10.83
2023-02-13T11:44:02.312Z,10.58
2023-02-13T11:46:51.017Z,10.76
2023-02-13T11:49:40.107Z,10.77
2023-02-13T11:52:30.324Z,11.04
2023-02-13T11:55:30.510Z,10.96
2023-02-13T11:58:25.895Z,10.92
2023-02-13T12:01:28.334Z,10.95
2023-02-13T12:04:17.794Z,10.58
2023-02-13T12:07:13.840Z,11.11
2023-02-13T12:10:03.939Z,11.30
2023-02-13T12:12:56.427Z,11.33
2023-02-13T12:15:44.439Z,11.31
2023-02-13T12:18:36.481Z,11.03
2023-02-13T12:21:38.317Z,11.03
2023-02-13T12:24:44.062Z,11.54
2023-02-13T12:27:42.996Z,11.38
2023-02-13T12:31:00.032Z,11.36
2023-02-13T12:34:16.029Z,11.52
2023-02-13T12:37:16.789Z,11.60
2023-02-13T12:40:27.471Z,11.59
2023-02-13T12:43:41.360Z,11.12
2023-02-13T12:46:37.653Z,11.42
2023-02-13T12:49:49.954Z,11.69
2023-02-13T12:52:50.113Z,11.77
2023-02-13T12:55:50.116Z,11.44
2023-02-13T12:58:58.302Z,11.49
2023-02-13T13:02:00.468Z,11.66
2023-02-13T13:04:58.039Z,11.97
2023-02-13T13:08:10.095Z,11.71
2023-02-13T13:11:15.839Z,11.40
2023-02-13T13:14:12.205Z,10.95
2023-02-13T13:17:08.422Z,11.21
2023-02-13T13:20:02.679Z,11.43
2023-02-13T13:22:53.770Z,11.79
2023-02-13T13:25:48.682Z,11.64
2023-02-13T13:28:39.550Z,11.55
2023-02-13T13:31:27.884Z,11.42
2023-02-13T13:34:21.790Z,11.53
2023-02-13T13:37:15.492Z,11.37
2023-02-13T13:40:17.394Z,11.31
2023-02-13T13:43:08.903Z,11.59
2023-02-13T13:46:07.406Z,11.43
2023-02-13T13:49:07.709Z,11.32
2023-02-13T13:52:11.076Z,11.64
2023-02-13T13:55:00.528Z,11.82
2023-02-13T13:58:01.172Z,11.44
2023-02-13T14:00:48.046Z,11.40
2023-02-13T14:03:38.121Z,11.32
2023-02-13T14:06:27.057Z,11.28
2023-02-13T14:09:40.083Z,11.43
2023-02-13T14:12:47.319Z,11.35
2023-02-13T14:15:55.009Z,11.30
2023-02-13T14:18:48.029Z,11.37
2023-02-13T14:21:34.684Z,11.38
2023-02-13T14:24:23.572Z,11.43
2023-02-13T14:27:23.143Z,11.51
2023-02-13T14:30:28.639Z,11.44
2023-02-13T14:33:26.792Z,11.48
2023-02-13T14:36:23.144Z,11.36
2023-02-13T14:39:29.081Z,11.39
2023-02-13T14:42:28.448Z,11.52
2023-02-13T14:45:19.649Z,11.56
2023-02-13T14:48:15.055Z,11.59
2023-02-13T14:51:02.815Z,11.48
2023-02-13T14:53:55.669Z,11.45
2023-02-13T14:56:46.016Z,11.57
2023-02-13T14:59:37.728Z,11.52
2023-02-13T15:02:25.492Z,11.34
2023-02-13T15:05:15.818Z,11.40
2023-02-13T15:08:08.668Z,11.40
2023-02-13T15:10:57.757Z,11.41
2023-02-13T15:13:44.419Z,11.47
2023-02-13T15:16:32.621Z,11.36
2023-02-13T15:19:21.931Z,11.33
2023-02-13T15:22:09.036Z,11.15
2023-02-13T15:24:55.741Z,11.22
2023-02-13T15:27:44.851Z,11.15
2023-02-13T15:30:33.085Z,11.28
2023-02-13T15:33:23.026Z,11.13
2023-02-13T15:36:19.462Z,11.11
2023-02-13T15:39:10.380Z,11.25
2023-02-13T15:41:59.950Z,11.13
2023-02-13T15:44:49.643Z,11.01
2023-02-13T15:47:36.479Z,11.12
2023-02-13T15:50:30.795Z,11.00
2023-02-13T15:53:19.862Z,10.98
2023-02-13T15:56:07.076Z,11.13
2023-02-13T15:58:55.485Z,11.27
2023-02-13T16:01:44.377Z,11.45
2023-02-13T16:04:31.683Z,11.66
2023-02-13T16:07:20.552Z,11.62
2023-02-13T16:10:17.547Z,11.67
2023-02-13T16:13:06.977Z,11.73
2023-02-13T16:15:53.689Z,11.80
2023-02-13T16:18:41.605Z,11.34
2023-02-13T16:21:31.391Z,11.30
2023-02-13T16:24:20.579Z,10.85
2023-02-13T16:27:14.483Z,10.55
2023-02-13T16:30:03.875Z,10.40
2023-02-13T16:32:50.727Z,10.29
2023-02-13T16:35:39.490Z,10.08
2023-02-13T16:38:35.708Z,9.96
2023-02-13T16:41:33.805Z,9.76
2023-02-13T16:44:25.562Z,9.57
2023-02-13T16:47:22.385Z,9.38
2023-02-13T16:50:15.667Z,9.10
2023-02-13T16:53:03.811Z,8.92
2023-02-13T16:55:58.484Z,8.82
2023-02-13T16:58:46.153Z,8.72
2023-02-13T17:01:32.819Z,8.61
2023-02-13T17:04:24.066Z,8.51
2023-02-13T17:07:14.287Z,8.36
2023-02-13T17:10:03.058Z,8.24
2023-02-13T17:12:50.523Z,8.05
2023-02-13T17:15:41.779Z,8.00
2023-02-13T17:18:29.059Z,7.85
2023-02-13T17:21:15.415Z,7.74
2023-02-13T17:24:03.559Z,7.62
2023-02-13T17:26:49.964Z,7.47
2023-02-13T17:29:36.585Z,7.44
2023-02-13T17:32:26.995Z,7.52
2023-02-13T17:35:14.468Z,7.47
2023-02-13T17:38:00.922Z,7.34
2023-02-13T17:40:48.032Z,7.26
2023-02-13T17:43:34.607Z,7.18
2023-02-13T17:46:21.215Z,7.13
2023-02-13T17:49:09.259Z,7.09
2023-02-13T17:51:55.995Z,7.04
2023-02-13T17:54:43.960Z,6.95
2023-02-13T17:57:30.532Z,6.85
2023-02-13T18:00:19.018Z,6.79
2023-02-13T18:03:05.573Z,6.72
2023-02-13T18:05:53.247Z,6.64
2023-02-13T18:08:39.939Z,6.57
2023-02-13T18:11:26.512Z,6.58
2023-02-13T18:14:13.331Z,6.64
2023-02-13T18:17:00.731Z,6.54
2023-02-13T18:19:47.937Z,6.52
2023-02-13T18:22:36.121Z,6.50
2023-02-13T18:25:23.649Z,6.55
2023-02-13T18:28:10.563Z,6.63
2023-02-13T18:30:57.793Z,6.59
2023-02-13T18:33:44.789Z,6.50
2023-02-13T18:36:31.683Z,6.37
2023-02-13T18:45:05.597Z,6.33
2023-02-13T18:47:53.867Z,6.35
2023-02-13T18:50:41.041Z,6.34
2023-02-13T18:53:27.829Z,6.69
2023-02-13T18:56:15.263Z,6.64
2023-02-13T18:59:01.898Z,6.65
2023-02-13T19:01:48.702Z,6.86
2023-02-13T19:04:36.716Z,7.01
2023-02-13T19:07:23.360Z,6.94
2023-02-13T19:10:10.814Z,6.94
2023-02-13T19:12:57.425Z,6.91
2023-02-13T19:15:44.071Z,6.76
2023-02-13T19:18:30.795Z,6.73
2023-02-13T19:21:19.740Z,6.70
2023-02-13T19:24:08.950Z,6.71
2023-02-13T19:26:55.315Z,6.75
2023-02-13T19:29:42.038Z,6.75
2023-02-13T19:32:28.836Z,6.75
2023-02-13T19:35:15.556Z,6.70
2023-02-13T19:38:03.775Z,6.57
2023-02-13T19:40:50.727Z,6.37
2023-02-13T19:43:37.873Z,6.21
2023-02-13T19:46:26.252Z,6.04
2023-02-13T19:49:12.820Z,5.84
2023-02-13T19:51:59.913Z,5.61
2023-02-13T19:54:49.027Z,5.50
2023-02-13T19:57:35.631Z,5.39
2023-02-13T20:00:22.819Z,5.24
2023-02-13T20:03:09.513Z,5.07
2023-02-13T20:05:55.978Z,4.98
2023-02-13T20:08:43.254Z,4.95
2023-02-13T20:11:31.376Z,4.86
2023-02-13T20:14:18.414Z,4.77
2023-02-13T20:17:05.813Z,4.68
2023-02-13T20:19:52.856Z,4.60
2023-02-13T20:22:39.485Z,4.50
2023-02-13T20:25:29.973Z,4.44
2023-02-13T20:28:17.879Z,4.35
2023-02-13T20:31:10.730Z,4.30
2023-02-13T20:33:58.820Z,4.33
2023-02-13T20:36:45.404Z,4.25
2023-02-13T20:39:32.328Z,4.19
2023-02-13T20:42:18.900Z,4.13
2023-02-13T20:45:07.879Z,4.10
2023-02-13T20:47:54.525Z,4.03
2023-02-13T20:50:41.330Z,3.99
2023-02-13T20:53:28.199Z,3.99
2023-02-13T20:56:16.549Z,3.90
2023-02-13T20:59:05.272Z,3.77
2023-02-13T21:01:52.985Z,3.78
2023-02-13T21:04:39.938Z,3.70
2023-02-13T21:07:26.588Z,3.64
2023-02-13T21:10:13.286Z,3.59
2023-02-13T21:13:00.028Z,3.63
2023-02-13T21:15:48.980Z,3.57
2023-02-13T21:18:37.538Z,3.57
2023-02-13T21:21:25.987Z,3.54
2023-02-13T21:24:15.191Z,3.54
2023-02-13T21:27:01.640Z,3.53
2023-02-13T21:29:48.070Z,3.44
2023-02-13T21:32:34.499Z,3.42
2023-02-13T21:35:22.468Z,3.36
2023-02-13T21:38:09.019Z,3.31
2023-02-13T21:40:56.931Z,3.26
2023-02-13T21:43:46.701Z,3.23
2023-02-13T21:46:34.417Z,3.18
2023-02-13T21:49:20.852Z,3.15
2023-02-13T21:52:08.950Z,3.11
2023-02-13T21:54:55.119Z,3.06
2023-02-13T21:57:41.805Z,3.08
2023-02-13T22:00:28.378Z,3.00
2023-02-13T22:03:15.130Z,2.97
2023-02-13T22:06:01.623Z,2.94
2023-02-13T22:08:50.181Z,2.89
2023-02-13T22:11:37.255Z,2.84
2023-02-13T22:14:23.771Z,2.78
2023-02-13T22:17:10.300Z,2.77
2023-02-13T22:19:56.800Z,2.73
2023-02-13T22:22:43.220Z,2.71
2023-02-13T22:25:31.120Z,2.70
2023-02-13T22:28:18.282Z,2.65
2023-02-13T22:31:09.212Z,2.66
2023-02-13T22:34:05.384Z,2.65
2023-02-13T22:36:52.043Z,2.66
2023-02-13T22:39:39.609Z,2.65
2023-02-13T22:42:27.421Z,2.61
2023-02-13T22:45:14.059Z,2.60
2023-02-13T22:48:00.500Z,2.61
2023-02-13T22:50:46.885Z,2.50
2023-02-13T22:53:34.148Z,2.48
2023-02-13T22:56:21.157Z,2.47
2023-02-13T22:59:10.194Z,2.44
2023-02-13T23:02:13.156Z,2.39
2023-02-13T23:04:59.972Z,2.34
2023-02-13T23:07:46.421Z,2.28
2023-02-13T23:10:33.064Z,2.32
2023-02-13T23:13:18.422Z,2.33
2023-02-13T23:16:13.371Z,2.32
2023-02-13T23:18:59.051Z,2.32
2023-02-13T23:21:45.332Z,2.25
2023-02-13T23:24:32.266Z,2.16
2023-02-13T23:27:18.605Z,2.14
2023-02-13T23:30:08.555Z,2.14
2023-02-13T23:32:57.292Z,2.09
2023-02-13T23:35:43.592Z,2.03
2023-02-13T23:38:30.212Z,1.96
2023-02-13T23:41:16.664Z,2.06
2023-02-13T23:44:03.400Z,2.13
2023-02-13T23:46:49.942Z,2.18
2023-02-13T23:49:37.880Z,2.15
2023-02-13T23:52:24.465Z,2.20
2023-02-13T23:55:10.935Z,2.18
2023-02-13T23:57:57.457Z,2.08
